sensor_id;sensor_type;location;lat;lon;timestamp;pressure;altitude;pressure_sealevel;temperature;humidity
11808;BME280;5961;42.640;23.380;2023-05-18T00:00:13;93532.78;;;13.18;100.00
11808;BME280;5961;42.640;23.380;2023-05-18T00:02:40;93539.56;;;13.12;100.00
11808;BME280;5961;42.640;23.380;2023-05-18T00:05:07;93529.34;;;13.14;100.00
11808;BME280;5961;42.640;23.380;2023-05-18T00:07:36;93533.13;;;13.13;100.00
11808;BME280;5961;42.640;23.380;2023-05-18T00:10:04;93538.78;;;13.08;100.00
11808;BME280;5961;42.640;23.380;2023-05-18T00:12:30;93508.25;;;12.83;100.00
11808;BME280;5961;42.640;23.380;2023-05-18T00:14:57;93535.59;;;13.02;100.00
11808;BME280;5961;42.640;23.380;2023-05-18T00:17:24;93545.78;;;12.97;100.00
11808;BME280;5961;42.640;23.380;2023-05-18T00:19:50;93534.34;;;12.96;100.00
11808;BME280;5961;42.640;23.380;2023-05-18T00:22:17;93534.31;;;12.93;100.00
11808;BME280;5961;42.640;23.380;2023-05-18T00:24:46;93536.94;;;12.89;100.00
11808;BME280;5961;42.640;23.380;2023-05-18T00:27:13;93544.16;;;12.89;100.00
11808;BME280;5961;42.640;23.380;2023-05-18T00:29:40;93540.25;;;12.83;100.00
11808;BME280;5961;42.640;23.380;2023-05-18T00:32:07;93527.31;;;12.85;100.00
11808;BME280;5961;42.640;23.380;2023-05-18T00:34:33;93539.53;;;12.86;100.00
11808;BME280;5961;42.640;23.380;2023-05-18T00:37:00;93549.38;;;12.82;100.00
11808;BME280;5961;42.640;23.380;2023-05-18T00:39:27;93536.41;;;12.80;100.00
11808;BME280;5961;42.640;23.380;2023-05-18T00:41:55;93534.84;;;12.79;100.00
11808;BME280;5961;42.640;23.380;2023-05-18T00:44:22;93547.00;;;12.77;100.00
11808;BME280;5961;42.640;23.380;2023-05-18T00:46:48;93548.97;;;12.80;100.00
11808;BME280;5961;42.640;23.380;2023-05-18T00:49:16;93538.00;;;12.85;100.00
11808;BME280;5961;42.640;23.380;2023-05-18T00:51:43;93526.59;;;12.88;100.00
11808;BME280;5961;42.640;23.380;2023-05-18T00:54:10;93538.75;;;12.85;100.00
11808;BME280;5961;42.640;23.380;2023-05-18T00:56:38;93533.38;;;12.82;100.00
11808;BME280;5961;42.640;23.380;2023-05-18T00:59:08;93537.13;;;12.77;100.00
11808;BME280;5961;42.640;23.380;2023-05-18T01:01:35;93525.38;;;12.82;100.00
11808;BME280;5961;42.640;23.380;2023-05-18T01:04:07;93527.38;;;12.88;100.00
11808;BME280;5961;42.640;23.380;2023-05-18T01:06:34;93528.56;;;12.91;100.00
11808;BME280;5961;42.640;23.380;2023-05-18T01:09:03;93528.16;;;12.89;100.00
11808;BME280;5961;42.640;23.380;2023-05-18T01:11:36;93518.59;;;12.88;100.00
11808;BME280;5961;42.640;23.380;2023-05-18T01:14:12;93528.28;;;12.96;100.00
11808;BME280;5961;42.640;23.380;2023-05-18T01:16:45;93534.25;;;12.89;100.00
11808;BME280;5961;42.640;23.380;2023-05-18T01:19:39;93536.94;;;12.89;100.00
11808;BME280;5961;42.640;23.380;2023-05-18T01:22:17;93538.16;;;12.95;100.00
11808;BME280;5961;42.640;23.380;2023-05-18T01:24:55;93538.09;;;12.92;100.00
11808;BME280;5961;42.640;23.380;2023-05-18T01:27:25;93537.78;;;12.97;100.00
11808;BME280;5961;42.640;23.380;2023-05-18T01:29:54;93535.13;;;12.97;100.00
11808;BME280;5961;42.640;23.380;2023-05-18T01:32:21;93533.28;;;13.01;100.00
11808;BME280;5961;42.640;23.380;2023-05-18T01:34:48;93539.75;;;13.00;100.00
11808;BME280;5961;42.640;23.380;2023-05-18T01:37:14;93529.00;;;12.93;100.00
11808;BME280;5961;42.640;23.380;2023-05-18T01:39:41;93534.47;;;13.03;100.00
11808;BME280;5961;42.640;23.380;2023-05-18T01:42:11;93528.09;;;13.08;100.00
11808;BME280;5961;42.640;23.380;2023-05-18T01:44:45;93520.66;;;12.98;100.00
11808;BME280;5961;42.640;23.380;2023-05-18T01:47:14;93525.34;;;13.04;100.00
11808;BME280;5961;42.640;23.380;2023-05-18T01:49:45;93537.03;;;12.96;100.00
11808;BME280;5961;42.640;23.380;2023-05-18T01:52:17;93532.41;;;12.93;100.00
11808;BME280;5961;42.640;23.380;2023-05-18T01:54:48;93540.31;;;12.86;100.00
11808;BME280;5961;42.640;23.380;2023-05-18T01:57:17;93545.00;;;12.93;100.00
11808;BME280;5961;42.640;23.380;2023-05-18T01:59:47;93549.84;;;12.87;100.00
11808;BME280;5961;42.640;23.380;2023-05-18T02:02:14;93544.16;;;12.89;100.00
11808;BME280;5961;42.640;23.380;2023-05-18T02:04:41;93535.03;;;12.90;100.00
11808;BME280;5961;42.640;23.380;2023-05-18T02:07:08;93546.41;;;12.87;100.00
11808;BME280;5961;42.640;23.380;2023-05-18T02:09:35;93548.38;;;12.90;100.00
11808;BME280;5961;42.640;23.380;2023-05-18T02:12:02;93544.94;;;12.89;100.00
11808;BME280;5961;42.640;23.380;2023-05-18T02:14:28;93550.97;;;12.86;100.00
11808;BME280;5961;42.640;23.380;2023-05-18T02:16:56;93548.78;;;12.92;100.00
11808;BME280;5961;42.640;23.380;2023-05-18T02:19:23;93557.56;;;12.92;100.00
11808;BME280;5961;42.640;23.380;2023-05-18T02:21:50;93548.78;;;12.92;100.00
11808;BME280;5961;42.640;23.380;2023-05-18T02:24:17;93544.88;;;12.86;100.00
11808;BME280;5961;42.640;23.380;2023-05-18T02:26:44;93540.41;;;12.93;100.00
11808;BME280;5961;42.640;23.380;2023-05-18T02:29:10;93540.47;;;12.97;100.00
11808;BME280;5961;42.640;23.380;2023-05-18T02:31:39;93542.00;;;12.98;100.00
11808;BME280;5961;42.640;23.380;2023-05-18T02:34:07;93524.91;;;12.76;100.00
11808;BME280;5961;42.640;23.380;2023-05-18T02:36:34;93549.16;;;12.90;100.00
11808;BME280;5961;42.640;23.380;2023-05-18T02:39:04;93548.78;;;12.92;100.00
11808;BME280;5961;42.640;23.380;2023-05-18T02:41:31;93556.47;;;12.97;100.00
11808;BME280;5961;42.640;23.380;2023-05-18T02:43:58;93556.06;;;12.95;100.00
11808;BME280;5961;42.640;23.380;2023-05-18T02:46:25;93557.28;;;13.01;100.00
11808;BME280;5961;42.640;23.380;2023-05-18T02:48:52;93561.50;;;13.02;100.00
11808;BME280;5961;42.640;23.380;2023-05-18T02:51:20;93561.75;;;12.93;100.00
11808;BME280;5961;42.640;23.380;2023-05-18T02:53:47;93556.41;;;12.93;100.00
11808;BME280;5961;42.640;23.380;2023-05-18T02:56:14;93564.00;;;12.91;100.00
11808;BME280;5961;42.640;23.380;2023-05-18T02:58:42;93571.34;;;12.98;100.00
11808;BME280;5961;42.640;23.380;2023-05-18T03:01:08;93568.63;;;12.94;100.00
11808;BME280;5961;42.640;23.380;2023-05-18T03:03:37;93584.16;;;13.11;100.00
11808;BME280;5961;42.640;23.380;2023-05-18T03:06:04;93592.22;;;13.15;100.00
11808;BME280;5961;42.640;23.380;2023-05-18T03:08:34;93592.66;;;13.17;100.00
11808;BME280;5961;42.640;23.380;2023-05-18T03:11:01;93601.06;;;13.19;100.00
11808;BME280;5961;42.640;23.380;2023-05-18T03:13:28;93588.66;;;13.07;100.00
11808;BME280;5961;42.640;23.380;2023-05-18T03:15:55;93592.66;;;13.17;100.00
11808;BME280;5961;42.640;23.380;2023-05-18T03:18:21;93606.31;;;13.15;100.00
11808;BME280;5961;42.640;23.380;2023-05-18T03:20:49;93614.00;;;13.17;100.00
11808;BME280;5961;42.640;23.380;2023-05-18T03:23:17;93614.38;;;13.19;100.00
11808;BME280;5961;42.640;23.380;2023-05-18T03:25:45;93609.47;;;13.21;100.00
11808;BME280;5961;42.640;23.380;2023-05-18T03:28:18;93615.22;;;13.23;100.00
11808;BME280;5961;42.640;23.380;2023-05-18T03:30:46;93579.34;;;12.98;100.00
11808;BME280;5961;42.640;23.380;2023-05-18T03:33:13;93610.19;;;13.18;100.00
11808;BME280;5961;42.640;23.380;2023-05-18T03:35:39;93602.41;;;13.09;100.00
11808;BME280;5961;42.640;23.380;2023-05-18T03:38:06;93616.94;;;13.12;100.00
11808;BME280;5961;42.640;23.380;2023-05-18T03:40:33;93624.69;;;13.20;100.00
11808;BME280;5961;42.640;23.380;2023-05-18T03:43:01;93613.72;;;13.03;100.00
11808;BME280;5961;42.640;23.380;2023-05-18T03:45:28;93622.28;;;13.12;100.00
11808;BME280;5961;42.640;23.380;2023-05-18T03:47:55;93621.00;;;13.06;100.00
11808;BME280;5961;42.640;23.380;2023-05-18T03:50:21;93621.00;;;13.06;100.00
11808;BME280;5961;42.640;23.380;2023-05-18T03:52:48;93625.94;;;13.04;100.00
11808;BME280;5961;42.640;23.380;2023-05-18T03:55:17;93632.81;;;13.05;100.00
11808;BME280;5961;42.640;23.380;2023-05-18T03:57:45;93628.94;;;13.02;100.00
11808;BME280;5961;42.640;23.380;2023-05-18T04:00:14;93635.50;;;13.05;100.00
11808;BME280;5961;42.640;23.380;2023-05-18T04:02:41;93635.44;;;13.01;100.00
11808;BME280;5961;42.640;23.380;2023-05-18T04:05:08;93636.78;;;12.92;100.00
11808;BME280;5961;42.640;23.380;2023-05-18T04:07:36;93649.34;;;12.91;100.00
11808;BME280;5961;42.640;23.380;2023-05-18T04:10:08;93651.66;;;12.93;100.00
11808;BME280;5961;42.640;23.380;2023-05-18T04:12:35;93645.16;;;12.90;100.00
11808;BME280;5961;42.640;23.380;2023-05-18T04:15:02;93649.41;;;12.95;100.00
11808;BME280;5961;42.640;23.380;2023-05-18T04:17:30;93656.34;;;12.99;100.00
11808;BME280;5961;42.640;23.380;2023-05-18T04:19:57;93664.16;;;12.89;100.00
11808;BME280;5961;42.640;23.380;2023-05-18T04:22:24;93655.63;;;13.02;100.00
11808;BME280;5961;42.640;23.380;2023-05-18T04:24:54;93641.41;;;12.95;100.00
11808;BME280;5961;42.640;23.380;2023-05-18T04:27:21;93610.78;;;12.62;100.00
11808;BME280;5961;42.640;23.380;2023-05-18T04:29:49;93612.34;;;12.67;100.00
11808;BME280;5961;42.640;23.380;2023-05-18T04:32:16;93649.47;;;12.98;100.00
11808;BME280;5961;42.640;23.380;2023-05-18T04:34:44;93650.97;;;12.96;100.00
11808;BME280;5961;42.640;23.380;2023-05-18T04:37:13;93654.75;;;12.95;100.00
11808;BME280;5961;42.640;23.380;2023-05-18T04:39:42;93661.09;;;12.87;100.00
11808;BME280;5961;42.640;23.380;2023-05-18T04:42:08;93660.00;;;12.91;100.00
11808;BME280;5961;42.640;23.380;2023-05-18T04:44:38;93669.09;;;12.87;100.00
11808;BME280;5961;42.640;23.380;2023-05-18T04:47:05;93666.06;;;12.88;100.00
11808;BME280;5961;42.640;23.380;2023-05-18T04:49:32;93670.50;;;12.81;100.00
11808;BME280;5961;42.640;23.380;2023-05-18T04:52:00;93673.94;;;12.81;100.00
11808;BME280;5961;42.640;23.380;2023-05-18T04:54:30;93677.88;;;12.87;100.00
11808;BME280;5961;42.640;23.380;2023-05-18T04:56:57;93686.28;;;12.89;100.00
11808;BME280;5961;42.640;23.380;2023-05-18T04:59:24;93678.34;;;12.93;100.00
11808;BME280;5961;42.640;23.380;2023-05-18T05:01:53;93685.09;;;12.87;100.00
11808;BME280;5961;42.640;23.380;2023-05-18T05:04:20;93693.97;;;12.94;100.00
11808;BME280;5961;42.640;23.380;2023-05-18T05:06:48;93692.44;;;12.93;100.00
11808;BME280;5961;42.640;23.380;2023-05-18T05:09:16;93688.94;;;12.89;100.00
11808;BME280;5961;42.640;23.380;2023-05-18T05:11:42;93696.31;;;12.96;100.00
11808;BME280;5961;42.640;23.380;2023-05-18T05:14:09;93695.16;;;12.97;100.00
11808;BME280;5961;42.640;23.380;2023-05-18T05:16:36;93701.34;;;13.01;100.00
11808;BME280;5961;42.640;23.380;2023-05-18T05:19:03;93703.16;;;12.97;100.00
11808;BME280;5961;42.640;23.380;2023-05-18T05:21:29;93708.22;;;13.02;100.00
11808;BME280;5961;42.640;23.380;2023-05-18T05:23:56;93709.75;;;13.03;100.00
11808;BME280;5961;42.640;23.380;2023-05-18T05:26:24;93709.75;;;13.03;100.00
11808;BME280;5961;42.640;23.380;2023-05-18T05:28:51;93719.72;;;13.06;100.00
11808;BME280;5961;42.640;23.380;2023-05-18T05:31:18;93714.38;;;13.06;100.00
11808;BME280;5961;42.640;23.380;2023-05-18T05:33:44;93719.03;;;13.09;100.00
11808;BME280;5961;42.640;23.380;2023-05-18T05:36:11;93715.66;;;13.12;100.00
11808;BME280;5961;42.640;23.380;2023-05-18T05:38:38;93722.25;;;13.18;100.00
11808;BME280;5961;42.640;23.380;2023-05-18T05:41:04;93715.00;;;13.18;100.00
11808;BME280;5961;42.640;23.380;2023-05-18T05:43:32;93724.91;;;13.18;100.00
11808;BME280;5961;42.640;23.380;2023-05-18T05:45:59;93724.50;;;13.16;100.00
11808;BME280;5961;42.640;23.380;2023-05-18T05:48:26;93721.44;;;13.14;100.00
11808;BME280;5961;42.640;23.380;2023-05-18T05:50:53;93727.22;;;13.19;100.00
11808;BME280;5961;42.640;23.380;2023-05-18T05:53:19;93718.44;;;13.19;100.00
11808;BME280;5961;42.640;23.380;2023-05-18T05:55:47;93717.03;;;13.25;100.00
11808;BME280;5961;42.640;23.380;2023-05-18T05:58:14;93736.91;;;13.28;100.00
11808;BME280;5961;42.640;23.380;2023-05-18T06:00:42;93713.91;;;13.19;100.00
11808;BME280;5961;42.640;23.380;2023-05-18T06:03:10;93727.63;;;13.22;100.00
11808;BME280;5961;42.640;23.380;2023-05-18T06:05:37;93731.50;;;13.24;100.00
11808;BME280;5961;42.640;23.380;2023-05-18T06:08:04;93727.72;;;13.25;100.00
11808;BME280;5961;42.640;23.380;2023-05-18T06:10:31;93723.16;;;13.26;100.00
11808;BME280;5961;42.640;23.380;2023-05-18T06:12:58;93730.38;;;13.25;100.00
11808;BME280;5961;42.640;23.380;2023-05-18T06:15:24;93741.94;;;13.33;100.00
11808;BME280;5961;42.640;23.380;2023-05-18T06:17:52;93728.34;;;13.18;100.00
11808;BME280;5961;42.640;23.380;2023-05-18T06:20:19;93741.44;;;13.27;100.00
11808;BME280;5961;42.640;23.380;2023-05-18T06:22:46;93743.78;;;13.29;100.00
11808;BME280;5961;42.640;23.380;2023-05-18T06:25:12;93751.41;;;13.30;100.00
11808;BME280;5961;42.640;23.380;2023-05-18T06:27:39;93747.63;;;13.31;100.00
11808;BME280;5961;42.640;23.380;2023-05-18T06:30:07;93748.75;;;13.30;100.00
11808;BME280;5961;42.640;23.380;2023-05-18T06:32:35;93736.41;;;13.22;100.00
11808;BME280;5961;42.640;23.380;2023-05-18T06:35:04;93747.63;;;13.31;100.00
11808;BME280;5961;42.640;23.380;2023-05-18T06:37:31;93748.34;;;13.28;100.00
11808;BME280;5961;42.640;23.380;2023-05-18T06:39:58;93753.38;;;13.33;100.00
11808;BME280;5961;42.640;23.380;2023-05-18T06:42:25;93761.81;;;13.35;100.00
11808;BME280;5961;42.640;23.380;2023-05-18T06:44:51;93753.75;;;13.32;100.00
11808;BME280;5961;42.640;23.380;2023-05-18T06:47:18;93762.53;;;13.32;100.00
11808;BME280;5961;42.640;23.380;2023-05-18T06:49:45;93766.44;;;13.38;100.00
11808;BME280;5961;42.640;23.380;2023-05-18T06:52:13;93769.13;;;13.38;100.00
11808;BME280;5961;42.640;23.380;2023-05-18T06:54:39;93768.81;;;13.43;100.00
11808;BME280;5961;42.640;23.380;2023-05-18T06:57:06;93779.09;;;13.41;100.00
11808;BME280;5961;42.640;23.380;2023-05-18T06:59:33;93775.63;;;13.41;100.00
11808;BME280;5961;42.640;23.380;2023-05-18T07:02:00;93780.97;;;13.41;100.00
11808;BME280;5961;42.640;23.380;2023-05-18T07:04:26;93791.34;;;13.46;100.00
11808;BME280;5961;42.640;23.380;2023-05-18T07:06:53;93788.34;;;13.47;100.00
11808;BME280;5961;42.640;23.380;2023-05-18T07:09:21;93790.31;;;13.50;100.00
11808;BME280;5961;42.640;23.380;2023-05-18T07:11:49;93801.78;;;13.54;100.00
11808;BME280;5961;42.640;23.380;2023-05-18T07:14:16;93799.13;;;13.54;100.00
11808;BME280;5961;42.640;23.380;2023-05-18T07:16:43;93782.56;;;13.45;100.00
11808;BME280;5961;42.640;23.380;2023-05-18T07:19:11;93800.28;;;13.53;100.00
11808;BME280;5961;42.640;23.380;2023-05-18T07:21:39;93810.50;;;13.51;100.00
11808;BME280;5961;42.640;23.380;2023-05-18T07:24:05;93805.59;;;13.53;100.00
11808;BME280;5961;42.640;23.380;2023-05-18T07:26:33;93807.97;;;13.58;100.00
11808;BME280;5961;42.640;23.380;2023-05-18T07:29:00;93822.44;;;13.57;100.00
11808;BME280;5961;42.640;23.380;2023-05-18T07:31:27;93796.63;;;13.42;100.00
11808;BME280;5961;42.640;23.380;2023-05-18T07:33:54;93813.66;;;13.57;100.00
11808;BME280;5961;42.640;23.380;2023-05-18T07:36:20;93817.75;;;13.51;100.00
11808;BME280;5961;42.640;23.380;2023-05-18T07:38:48;93824.16;;;13.46;100.00
11808;BME280;5961;42.640;23.380;2023-05-18T07:41:19;93834.13;;;13.49;100.00
11808;BME280;5961;42.640;23.380;2023-05-18T07:43:47;93830.34;;;13.50;100.00
11808;BME280;5961;42.640;23.380;2023-05-18T07:46:14;93837.91;;;13.48;100.00
11808;BME280;5961;42.640;23.380;2023-05-18T07:48:40;93836.41;;;13.47;100.00
11808;BME280;5961;42.640;23.380;2023-05-18T07:51:07;93846.22;;;13.43;100.00
11808;BME280;5961;42.640;23.380;2023-05-18T07:53:34;93845.31;;;13.36;100.00
11808;BME280;5961;42.640;23.380;2023-05-18T07:56:02;93853.31;;;13.36;100.00
11808;BME280;5961;42.640;23.380;2023-05-18T07:58:29;93845.75;;;13.18;100.00
11808;BME280;5961;42.640;23.380;2023-05-18T08:00:57;93852.84;;;13.30;100.00
11808;BME280;5961;42.640;23.380;2023-05-18T08:03:24;93858.16;;;13.30;100.00
11808;BME280;5961;42.640;23.380;2023-05-18T08:05:51;93866.47;;;13.25;100.00
11808;BME280;5961;42.640;23.380;2023-05-18T08:08:18;93861.13;;;13.25;100.00
11808;BME280;5961;42.640;23.380;2023-05-18T08:10:44;93801.50;;;12.79;100.00
11808;BME280;5961;42.640;23.380;2023-05-18T08:13:11;93863.25;;;13.16;100.00
11808;BME280;5961;42.640;23.380;2023-05-18T08:15:38;93875.97;;;13.23;100.00
11808;BME280;5961;42.640;23.380;2023-05-18T08:18:07;93883.19;;;13.22;100.00
11808;BME280;5961;42.640;23.380;2023-05-18T08:20:34;93884.66;;;13.19;100.00
11808;BME280;5961;42.640;23.380;2023-05-18T08:23:00;93888.94;;;13.24;100.00
11808;BME280;5961;42.640;23.380;2023-05-18T08:25:27;93891.69;;;13.28;100.00
11808;BME280;5961;42.640;23.380;2023-05-18T08:27:54;93893.94;;;13.26;100.00
11808;BME280;5961;42.640;23.380;2023-05-18T08:30:20;93897.78;;;13.28;100.00
11808;BME280;5961;42.640;23.380;2023-05-18T08:32:47;93897.88;;;13.32;100.00
11808;BME280;5961;42.640;23.380;2023-05-18T08:35:15;93910.38;;;13.28;100.00
11808;BME280;5961;42.640;23.380;2023-05-18T08:37:42;93912.94;;;13.24;100.00
11808;BME280;5961;42.640;23.380;2023-05-18T08:40:11;93912.19;;;13.24;100.00
11808;BME280;5961;42.640;23.380;2023-05-18T08:42:42;93901.47;;;13.20;100.00
11808;BME280;5961;42.640;23.380;2023-05-18T08:45:14;93906.50;;;13.25;100.00
11808;BME280;5961;42.640;23.380;2023-05-18T08:47:44;93913.81;;;13.28;100.00
11808;BME280;5961;42.640;23.380;2023-05-18T08:50:10;93919.84;;;13.25;100.00
11808;BME280;5961;42.640;23.380;2023-05-18T08:52:45;93917.09;;;13.22;100.00
11808;BME280;5961;42.640;23.380;2023-05-18T08:55:13;93926.03;;;13.29;100.00
11808;BME280;5961;42.640;23.380;2023-05-18T08:57:42;93939.03;;;13.31;100.00
11808;BME280;5961;42.640;23.380;2023-05-18T09:00:14;93938.25;;;13.30;100.00
11808;BME280;5961;42.640;23.380;2023-05-18T09:02:42;93936.00;;;13.32;100.00
11808;BME280;5961;42.640;23.380;2023-05-18T09:05:09;93937.69;;;13.40;100.00
11808;BME280;5961;42.640;23.380;2023-05-18T09:07:37;93940.38;;;13.40;100.00
11808;BME280;5961;42.640;23.380;2023-05-18T09:10:09;93940.78;;;13.42;100.00
11808;BME280;5961;42.640;23.380;2023-05-18T09:12:37;93945.00;;;13.43;100.00
11808;BME280;5961;42.640;23.380;2023-05-18T09:15:06;93944.59;;;13.41;100.00
11808;BME280;5961;42.640;23.380;2023-05-18T09:17:33;93957.50;;;13.39;100.00
11808;BME280;5961;42.640;23.380;2023-05-18T09:20:00;93955.97;;;13.38;100.00
11808;BME280;5961;42.640;23.380;2023-05-18T09:22:29;93953.72;;;13.40;100.00
11808;BME280;5961;42.640;23.380;2023-05-18T09:24:56;93961.00;;;13.43;100.00
11808;BME280;5961;42.640;23.380;2023-05-18T09:27:24;93950.75;;;13.45;100.00
11808;BME280;5961;42.640;23.380;2023-05-18T09:29:53;93934.47;;;13.31;100.00
11808;BME280;5961;42.640;23.380;2023-05-18T09:32:21;93956.78;;;13.42;100.00
11808;BME280;5961;42.640;23.380;2023-05-18T09:34:48;93949.00;;;13.34;100.00
11808;BME280;5961;42.640;23.380;2023-05-18T09:37:15;93955.97;;;13.38;100.00
11808;BME280;5961;42.640;23.380;2023-05-18T09:39:42;93962.84;;;13.39;100.00
11808;BME280;5961;42.640;23.380;2023-05-18T09:42:09;93958.00;;;13.26;100.00
11808;BME280;5961;42.640;23.380;2023-05-18T09:44:37;93967.09;;;13.25;100.00
11808;BME280;5961;42.640;23.380;2023-05-18T09:47:07;93972.28;;;13.17;100.00
11808;BME280;5961;42.640;23.380;2023-05-18T09:49:34;93963.78;;;13.12;100.00
11808;BME280;5961;42.640;23.380;2023-05-18T09:52:06;93967.03;;;13.05;100.00
11808;BME280;5961;42.640;23.380;2023-05-18T09:54:34;93967.50;;;13.07;100.00
11808;BME280;5961;42.640;23.380;2023-05-18T09:57:02;93965.84;;;13.03;100.00
11808;BME280;5961;42.640;23.380;2023-05-18T09:59:29;93975.03;;;13.05;100.00
11808;BME280;5961;42.640;23.380;2023-05-18T10:01:57;93956.56;;;12.97;100.00
11808;BME280;5961;42.640;23.380;2023-05-18T10:04:34;93973.34;;;12.97;100.00
11808;BME280;5961;42.640;23.380;2023-05-18T10:07:01;93968.72;;;12.94;100.00
11808;BME280;5961;42.640;23.380;2023-05-18T10:09:27;93974.81;;;12.95;100.00
11808;BME280;5961;42.640;23.380;2023-05-18T10:11:55;93978.09;;;12.88;100.00
11808;BME280;5961;42.640;23.380;2023-05-18T10:14:23;93972.06;;;12.91;100.00
11808;BME280;5961;42.640;23.380;2023-05-18T10:16:51;93987.19;;;13.03;100.00
11808;BME280;5961;42.640;23.380;2023-05-18T10:19:20;93987.88;;;13.00;100.00
11808;BME280;5961;42.640;23.380;2023-05-18T10:21:47;93979.09;;;12.99;100.00
11808;BME280;5961;42.640;23.380;2023-05-18T10:24:16;93994.97;;;13.08;100.00
11808;BME280;5961;42.640;23.380;2023-05-18T10:26:46;93993.59;;;13.14;100.00
11808;BME280;5961;42.640;23.380;2023-05-18T10:29:14;93991.31;;;13.16;100.00
11808;BME280;5961;42.640;23.380;2023-05-18T10:31:43;93986.00;;;13.16;100.00
11808;BME280;5961;42.640;23.380;2023-05-18T10:34:11;94007.63;;;13.30;100.00
11808;BME280;5961;42.640;23.380;2023-05-18T10:36:39;94007.63;;;13.30;100.00
11808;BME280;5961;42.640;23.380;2023-05-18T10:39:09;94007.78;;;13.37;100.00
11808;BME280;5961;42.640;23.380;2023-05-18T10:41:37;94011.31;;;13.41;100.00
11808;BME280;5961;42.640;23.380;2023-05-18T10:44:05;94008.69;;;13.45;100.00
11808;BME280;5961;42.640;23.380;2023-05-18T10:46:33;94005.97;;;13.41;100.00
11808;BME280;5961;42.640;23.380;2023-05-18T10:49:02;94011.03;;;13.46;100.00
11808;BME280;5961;42.640;23.380;2023-05-18T10:51:30;94009.22;;;13.50;100.00
11808;BME280;5961;42.640;23.380;2023-05-18T10:54:10;94018.75;;;13.51;100.00
11808;BME280;5961;42.640;23.380;2023-05-18T10:56:45;94021.88;;;13.53;100.00
11808;BME280;5961;42.640;23.380;2023-05-18T10:59:15;94029.44;;;13.51;100.00
11808;BME280;5961;42.640;23.380;2023-05-18T11:01:43;94023.75;;;13.53;100.00
11808;BME280;5961;42.640;23.380;2023-05-18T11:04:11;94029.09;;;13.53;100.00
11808;BME280;5961;42.640;23.380;2023-05-18T11:06:38;94029.44;;;13.51;100.00
11808;BME280;5961;42.640;23.380;2023-05-18T11:09:07;94030.22;;;13.52;100.00
11808;BME280;5961;42.640;23.380;2023-05-18T11:11:51;94029.44;;;13.51;100.00
11808;BME280;5961;42.640;23.380;2023-05-18T11:14:27;94033.25;;;13.50;100.00
11808;BME280;5961;42.640;23.380;2023-05-18T11:17:14;94041.50;;;13.45;100.00
11808;BME280;5961;42.640;23.380;2023-05-18T11:20:13;94043.47;;;13.48;100.00
11808;BME280;5961;42.640;23.380;2023-05-18T11:22:44;94048.75;;;13.45;100.00
11808;BME280;5961;42.640;23.380;2023-05-18T11:25:41;94055.56;;;13.42;100.00
11808;BME280;5961;42.640;23.380;2023-05-18T11:28:10;94059.78;;;13.43;100.00
11808;BME280;5961;42.640;23.380;2023-05-18T11:30:48;94060.91;;;13.42;100.00
11808;BME280;5961;42.640;23.380;2023-05-18T11:33:20;94055.44;;;13.35;100.00
11808;BME280;5961;42.640;23.380;2023-05-18T11:35:57;94049.91;;;13.28;100.00
11808;BME280;5961;42.640;23.380;2023-05-18T11:38:49;94052.59;;;13.28;100.00
11808;BME280;5961;42.640;23.380;2023-05-18T11:41:32;94070.69;;;13.19;100.00
11808;BME280;5961;42.640;23.380;2023-05-18T11:44:19;94059.06;;;12.96;100.00
11808;BME280;5961;42.640;23.380;2023-05-18T11:46:58;94052.00;;;12.88;100.00
11808;BME280;5961;42.640;23.380;2023-05-18T11:49:27;94062.94;;;12.83;100.00
11808;BME280;5961;42.640;23.380;2023-05-18T11:51:56;94062.34;;;12.74;100.00
11808;BME280;5961;42.640;23.380;2023-05-18T11:54:27;94063.22;;;12.62;100.00
11808;BME280;5961;42.640;23.380;2023-05-18T11:56:57;94062.94;;;12.51;100.00
11808;BME280;5961;42.640;23.380;2023-05-18T11:59:31;94059.81;;;12.34;100.00
11808;BME280;5961;42.640;23.380;2023-05-18T12:02:00;94053.63;;;12.45;100.00
11808;BME280;5961;42.640;23.380;2023-05-18T12:04:28;94054.88;;;12.48;100.00
11808;BME280;5961;42.640;23.380;2023-05-18T12:06:56;94040.50;;;12.09;100.00
11808;BME280;5961;42.640;23.380;2023-05-18T12:09:23;94053.72;;;12.33;100.00
11808;BME280;5961;42.640;23.380;2023-05-18T12:11:50;94065.03;;;12.15;100.00
11808;BME280;5961;42.640;23.380;2023-05-18T12:14:19;94057.56;;;12.20;100.00
11808;BME280;5961;42.640;23.380;2023-05-18T12:16:47;94062.22;;;12.23;100.00
11808;BME280;5961;42.640;23.380;2023-05-18T12:19:15;94057.06;;;12.30;100.00
11808;BME280;5961;42.640;23.380;2023-05-18T12:21:44;94060.09;;;12.44;100.00
11808;BME280;5961;42.640;23.380;2023-05-18T12:24:11;94065.59;;;12.51;100.00
11808;BME280;5961;42.640;23.380;2023-05-18T12:26:38;94069.31;;;12.62;100.00
11808;BME280;5961;42.640;23.380;2023-05-18T12:29:05;94062.53;;;12.65;100.00
11808;BME280;5961;42.640;23.380;2023-05-18T12:31:38;94074.81;;;12.70;100.00
11808;BME280;5961;42.640;23.380;2023-05-18T12:34:05;94061.25;;;12.75;100.00
11808;BME280;5961;42.640;23.380;2023-05-18T12:36:39;94066.72;;;12.82;100.00
11808;BME280;5961;42.640;23.380;2023-05-18T12:39:07;94065.34;;;12.88;100.00
11808;BME280;5961;42.640;23.380;2023-05-18T12:41:34;94032.16;;;12.70;100.00
11808;BME280;5961;42.640;23.380;2023-05-18T12:44:00;94068.19;;;12.95;100.00
11808;BME280;5961;42.640;23.380;2023-05-18T12:46:29;94072.13;;;13.01;100.00
11808;BME280;5961;42.640;23.380;2023-05-18T12:48:57;94049.44;;;12.91;100.00
11808;BME280;5961;42.640;23.380;2023-05-18T12:51:31;94062.97;;;13.14;100.00
11808;BME280;5961;42.640;23.380;2023-05-18T12:53:57;94062.09;;;13.10;100.00
11808;BME280;5961;42.640;23.380;2023-05-18T12:56:24;94066.13;;;13.19;100.00